Gulf Breeze, FL (32561)

8:09 PM CST on February 21, 2017 (GMT -0600)
Villa Venyce | | Change Station

Elev 36 ft 30.38 °N, 87.11 °W | Updated 1 second ago

Rain
Rain
61.7 °F
Feels Like 61.7 °F
N
2.7
Wind Variable Wind from East
Gusts 4.0 mph

Today
High -- | Low -- °F
--% Chance of Precip.
Yesterday
High -- | Low -- °F
Precip. -- in
Pressure 29.86 in
Visibility 10.0 miles
Clouds Mostly Cloudy 900 ft
Overcast 2200 ft
Dew Point 62 °F
Humidity 99%
Rainfall 1.39 in
Snow Depth Not available.
6:22 AM 5:41 PM
Waning Crescent, 21% visible
METAR KPNS 220153Z 07005KT 10SM BKN009 OVC022 17/15 A2986 RMK AO2 RAE49 CIG 006V012 SLP112 P0002 T01670150
Pressure 29.86 in
Visibility 10.0 miles
Clouds Mostly Cloudy 900 ft
Overcast 2200 ft
Dew Point 62 °F
Humidity 99%
Rainfall 1.39 in
Snow Depth Not available.
6:22 AM 5:41 PM
Waning Crescent, 21% visible
METAR KPNS 220153Z 07005KT 10SM BKN009 OVC022 17/15 A2986 RMK AO2 RAE49 CIG 006V012 SLP112 P0002 T01670150

Get Your Daily Forecast Email!

Thanks for signing up!

Be on the lookout for a verification email in your inbox.

You'll start receiving the daily forecast at 8 AM.

×

10-Day Weather Forecast

Almanac

Astronomy

Feb. 21, 2017 Rise Set
Actual Time
Civil Twilight
Nautical Twilight
Astronomical Twilight
Moon
Length of Visible Light
Length of Day
Tomorrow will be .
, % of the Moon is Illuminated

Today's Extremes

State Highs State Lows

Community

WunderPhotos

Upload Photos

1,962,540 photos uploaded!

WunderBlog® & News

Nearby

Air Quality

  Air Quality AQ Index Pollutant
Not available.

Snow Depth

Station Depth Elevation

Earthquake Activity

City Distance Mag. Time & Date
Minimum magnitude displayed is 2.5.

Coastal Water Temperatures

Place Temperature

Stations

Nearby Weather Stations

Station Location Temp. Windchill Dew Point Humidity Wind Precip. Elev Updated Type
                   

Watches & Warnings

There are currently no watches in effect.